sensor_id;sensor_type;location;lat;lon;timestamp;P1;durP1;ratioP1;P2;durP2;ratioP2
11125;SDS011;5617;54.046;10.676;2023-11-19T00:00:39;5.13;;;4.63;;
11125;SDS011;5617;54.046;10.676;2023-11-19T00:03:00;5.13;;;4.50;;
11125;SDS011;5617;54.046;10.676;2023-11-19T00:05:09;6.20;;;5.03;;
11125;SDS011;5617;54.046;10.676;2023-11-19T00:07:18;5.90;;;4.83;;
11125;SDS011;5617;54.046;10.676;2023-11-19T00:09:31;6.70;;;5.00;;
11125;SDS011;5617;54.046;10.676;2023-11-19T00:11:41;6.10;;;4.60;;
11125;SDS011;5617;54.046;10.676;2023-11-19T00:14:03;6.30;;;4.73;;
11125;SDS011;5617;54.046;10.676;2023-11-19T00:16:15;5.40;;;4.70;;
11125;SDS011;5617;54.046;10.676;2023-11-19T00:18:25;5.37;;;4.50;;
11125;SDS011;5617;54.046;10.676;2023-11-19T00:20:40;4.80;;;3.43;;
11125;SDS011;5617;54.046;10.676;2023-11-19T00:22:58;5.87;;;4.97;;
11125;SDS011;5617;54.046;10.676;2023-11-19T00:25:15;6.90;;;4.90;;
11125;SDS011;5617;54.046;10.676;2023-11-19T00:27:24;5.23;;;4.73;;
11125;SDS011;5617;54.046;10.676;2023-11-19T00:29:32;5.43;;;4.43;;
11125;SDS011;5617;54.046;10.676;2023-11-19T00:31:48;4.90;;;4.33;;
11125;SDS011;5617;54.046;10.676;2023-11-19T00:33:56;5.30;;;4.67;;
11125;SDS011;5617;54.046;10.676;2023-11-19T00:36:04;5.30;;;4.80;;
11125;SDS011;5617;54.046;10.676;2023-11-19T00:38:21;4.73;;;4.20;;
11125;SDS011;5617;54.046;10.676;2023-11-19T00:40:29;5.43;;;4.73;;
11125;SDS011;5617;54.046;10.676;2023-11-19T00:42:38;5.93;;;4.30;;
11125;SDS011;5617;54.046;10.676;2023-11-19T00:44:47;5.10;;;4.57;;
11125;SDS011;5617;54.046;10.676;2023-11-19T00:46:58;6.20;;;4.17;;
11125;SDS011;5617;54.046;10.676;2023-11-19T00:49:07;5.50;;;3.93;;
11125;SDS011;5617;54.046;10.676;2023-11-19T00:51:18;4.97;;;4.50;;
11125;SDS011;5617;54.046;10.676;2023-11-19T00:53:28;4.50;;;4.10;;
11125;SDS011;5617;54.046;10.676;2023-11-19T00:55:36;4.87;;;4.03;;
11125;SDS011;5617;54.046;10.676;2023-11-19T00:57:55;4.70;;;4.10;;
11125;SDS011;5617;54.046;10.676;2023-11-19T01:00:04;4.07;;;3.67;;
11125;SDS011;5617;54.046;10.676;2023-11-19T01:02:26;3.40;;;3.10;;
11125;SDS011;5617;54.046;10.676;2023-11-19T01:04:34;4.13;;;3.73;;
11125;SDS011;5617;54.046;10.676;2023-11-19T01:06:43;3.97;;;3.57;;
11125;SDS011;5617;54.046;10.676;2023-11-19T01:08:56;5.40;;;4.23;;
11125;SDS011;5617;54.046;10.676;2023-11-19T01:11:05;3.40;;;3.10;;
11125;SDS011;5617;54.046;10.676;2023-11-19T01:13:14;3.97;;;3.13;;
11125;SDS011;5617;54.046;10.676;2023-11-19T01:15:23;3.63;;;3.33;;
11125;SDS011;5617;54.046;10.676;2023-11-19T01:17:31;3.57;;;3.27;;
11125;SDS011;5617;54.046;10.676;2023-11-19T01:19:39;3.40;;;3.10;;
11125;SDS011;5617;54.046;10.676;2023-11-19T01:21:48;3.70;;;2.97;;
11125;SDS011;5617;54.046;10.676;2023-11-19T01:23:56;3.30;;;3.00;;
11125;SDS011;5617;54.046;10.676;2023-11-19T01:26:05;3.40;;;3.10;;
11125;SDS011;5617;54.046;10.676;2023-11-19T01:28:18;2.70;;;2.50;;
11125;SDS011;5617;54.046;10.676;2023-11-19T01:30:26;2.97;;;2.70;;
11125;SDS011;5617;54.046;10.676;2023-11-19T01:32:34;3.20;;;2.90;;
11125;SDS011;5617;54.046;10.676;2023-11-19T01:34:43;2.70;;;2.50;;
11125;SDS011;5617;54.046;10.676;2023-11-19T01:36:51;3.70;;;3.27;;
11125;SDS011;5617;54.046;10.676;2023-11-19T01:38:59;3.17;;;2.87;;
11125;SDS011;5617;54.046;10.676;2023-11-19T01:41:07;2.90;;;2.60;;
11125;SDS011;5617;54.046;10.676;2023-11-19T01:45:49;3.00;;;2.73;;
11125;SDS011;5617;54.046;10.676;2023-11-19T01:47:57;3.07;;;2.77;;
11125;SDS011;5617;54.046;10.676;2023-11-19T01:50:07;3.10;;;2.90;;
11125;SDS011;5617;54.046;10.676;2023-11-19T01:52:16;2.73;;;2.53;;
11125;SDS011;5617;54.046;10.676;2023-11-19T01:54:24;2.67;;;2.43;;
11125;SDS011;5617;54.046;10.676;2023-11-19T01:56:32;2.70;;;2.50;;
11125;SDS011;5617;54.046;10.676;2023-11-19T01:58:42;2.80;;;2.60;;
11125;SDS011;5617;54.046;10.676;2023-11-19T02:00:51;3.30;;;3.00;;
11125;SDS011;5617;54.046;10.676;2023-11-19T02:02:59;3.47;;;3.17;;
11125;SDS011;5617;54.046;10.676;2023-11-19T02:05:08;2.97;;;2.77;;
11125;SDS011;5617;54.046;10.676;2023-11-19T02:07:16;3.00;;;2.73;;
11125;SDS011;5617;54.046;10.676;2023-11-19T02:09:25;4.03;;;2.60;;
11125;SDS011;5617;54.046;10.676;2023-11-19T02:11:34;3.27;;;2.97;;
11125;SDS011;5617;54.046;10.676;2023-11-19T02:13:42;3.00;;;2.70;;
11125;SDS011;5617;54.046;10.676;2023-11-19T02:15:52;2.50;;;2.30;;
11125;SDS011;5617;54.046;10.676;2023-11-19T02:18:17;2.83;;;2.57;;
11125;SDS011;5617;54.046;10.676;2023-11-19T02:20:25;2.60;;;2.40;;
11125;SDS011;5617;54.046;10.676;2023-11-19T02:22:33;2.43;;;2.23;;
11125;SDS011;5617;54.046;10.676;2023-11-19T02:24:41;2.50;;;2.30;;
11125;SDS011;5617;54.046;10.676;2023-11-19T02:26:52;2.60;;;2.40;;
11125;SDS011;5617;54.046;10.676;2023-11-19T02:29:07;2.03;;;1.93;;
11125;SDS011;5617;54.046;10.676;2023-11-19T02:31:15;2.40;;;2.20;;
11125;SDS011;5617;54.046;10.676;2023-11-19T02:33:24;1.73;;;1.63;;
11125;SDS011;5617;54.046;10.676;2023-11-19T02:35:31;2.27;;;2.00;;
11125;SDS011;5617;54.046;10.676;2023-11-19T02:37:40;2.27;;;2.10;;
11125;SDS011;5617;54.046;10.676;2023-11-19T02:39:48;1.70;;;1.60;;
11125;SDS011;5617;54.046;10.676;2023-11-19T02:41:56;2.00;;;1.90;;
11125;SDS011;5617;54.046;10.676;2023-11-19T02:44:04;1.70;;;1.60;;
11125;SDS011;5617;54.046;10.676;2023-11-19T02:46:14;1.70;;;1.60;;
11125;SDS011;5617;54.046;10.676;2023-11-19T02:48:31;4.57;;;1.83;;
11125;SDS011;5617;54.046;10.676;2023-11-19T02:50:39;1.70;;;1.60;;
11125;SDS011;5617;54.046;10.676;2023-11-19T02:52:47;1.57;;;1.47;;
11125;SDS011;5617;54.046;10.676;2023-11-19T02:54:54;1.63;;;1.50;;
11125;SDS011;5617;54.046;10.676;2023-11-19T02:57:04;2.90;;;1.50;;
11125;SDS011;5617;54.046;10.676;2023-11-19T02:59:28;1.50;;;1.40;;
11125;SDS011;5617;54.046;10.676;2023-11-19T03:01:48;1.50;;;1.40;;
11125;SDS011;5617;54.046;10.676;2023-11-19T03:03:57;1.50;;;1.40;;
11125;SDS011;5617;54.046;10.676;2023-11-19T03:06:16;1.10;;;1.10;;
11125;SDS011;5617;54.046;10.676;2023-11-19T03:08:24;1.43;;;1.33;;
11125;SDS011;5617;54.046;10.676;2023-11-19T03:10:32;1.13;;;1.13;;
11125;SDS011;5617;54.046;10.676;2023-11-19T03:12:41;1.20;;;1.10;;
11125;SDS011;5617;54.046;10.676;2023-11-19T03:14:50;1.27;;;1.27;;
11125;SDS011;5617;54.046;10.676;2023-11-19T03:17:07;1.30;;;1.20;;
11125;SDS011;5617;54.046;10.676;2023-11-19T03:19:16;1.10;;;1.10;;
11125;SDS011;5617;54.046;10.676;2023-11-19T03:21:29;1.17;;;1.10;;
11125;SDS011;5617;54.046;10.676;2023-11-19T03:23:38;2.13;;;1.20;;
11125;SDS011;5617;54.046;10.676;2023-11-19T03:25:46;1.23;;;1.13;;
11125;SDS011;5617;54.046;10.676;2023-11-19T03:27:55;1.20;;;1.20;;
11125;SDS011;5617;54.046;10.676;2023-11-19T03:30:03;1.20;;;1.20;;
11125;SDS011;5617;54.046;10.676;2023-11-19T03:32:14;1.00;;;1.00;;
11125;SDS011;5617;54.046;10.676;2023-11-19T03:34:22;1.00;;;1.00;;
11125;SDS011;5617;54.046;10.676;2023-11-19T03:36:31;1.10;;;0.97;;
11125;SDS011;5617;54.046;10.676;2023-11-19T03:38:53;0.80;;;0.80;;
11125;SDS011;5617;54.046;10.676;2023-11-19T03:41:01;0.90;;;0.90;;
11125;SDS011;5617;54.046;10.676;2023-11-19T03:43:17;0.80;;;0.80;;
11125;SDS011;5617;54.046;10.676;2023-11-19T03:45:26;0.90;;;0.90;;
11125;SDS011;5617;54.046;10.676;2023-11-19T03:47:39;1.20;;;1.10;;
11125;SDS011;5617;54.046;10.676;2023-11-19T03:49:47;0.90;;;0.90;;
11125;SDS011;5617;54.046;10.676;2023-11-19T03:51:56;1.20;;;1.10;;
11125;SDS011;5617;54.046;10.676;2023-11-19T03:54:04;0.80;;;0.80;;
11125;SDS011;5617;54.046;10.676;2023-11-19T03:56:14;0.90;;;0.90;;
11125;SDS011;5617;54.046;10.676;2023-11-19T03:58:23;0.90;;;0.90;;
11125;SDS011;5617;54.046;10.676;2023-11-19T04:00:31;0.80;;;0.80;;
11125;SDS011;5617;54.046;10.676;2023-11-19T04:02:41;0.70;;;0.70;;
11125;SDS011;5617;54.046;10.676;2023-11-19T04:04:50;1.00;;;0.90;;
11125;SDS011;5617;54.046;10.676;2023-11-19T04:06:58;0.90;;;0.90;;
11125;SDS011;5617;54.046;10.676;2023-11-19T04:09:14;0.90;;;0.90;;
11125;SDS011;5617;54.046;10.676;2023-11-19T04:11:30;0.80;;;0.80;;
11125;SDS011;5617;54.046;10.676;2023-11-19T04:13:39;1.23;;;0.80;;
11125;SDS011;5617;54.046;10.676;2023-11-19T04:15:49;0.87;;;0.87;;
11125;SDS011;5617;54.046;10.676;2023-11-19T04:17:58;0.97;;;0.97;;
11125;SDS011;5617;54.046;10.676;2023-11-19T04:20:07;1.03;;;0.93;;
11125;SDS011;5617;54.046;10.676;2023-11-19T04:22:18;0.80;;;0.80;;
11125;SDS011;5617;54.046;10.676;2023-11-19T04:24:29;0.93;;;0.90;;
11125;SDS011;5617;54.046;10.676;2023-11-19T04:26:39;0.93;;;0.93;;
11125;SDS011;5617;54.046;10.676;2023-11-19T04:28:49;0.97;;;0.97;;
11125;SDS011;5617;54.046;10.676;2023-11-19T04:30:57;1.90;;;0.90;;
11125;SDS011;5617;54.046;10.676;2023-11-19T04:33:06;1.00;;;1.00;;
11125;SDS011;5617;54.046;10.676;2023-11-19T04:35:14;0.87;;;0.87;;
11125;SDS011;5617;54.046;10.676;2023-11-19T04:37:22;0.90;;;0.90;;
11125;SDS011;5617;54.046;10.676;2023-11-19T04:39:30;0.70;;;0.70;;
11125;SDS011;5617;54.046;10.676;2023-11-19T04:41:45;0.80;;;0.80;;
11125;SDS011;5617;54.046;10.676;2023-11-19T04:43:53;1.03;;;0.90;;
11125;SDS011;5617;54.046;10.676;2023-11-19T04:46:03;0.80;;;0.80;;
11125;SDS011;5617;54.046;10.676;2023-11-19T04:48:13;1.70;;;0.80;;
11125;SDS011;5617;54.046;10.676;2023-11-19T04:50:21;0.73;;;0.73;;
11125;SDS011;5617;54.046;10.676;2023-11-19T04:52:38;0.70;;;0.70;;
11125;SDS011;5617;54.046;10.676;2023-11-19T04:54:48;0.80;;;0.80;;
11125;SDS011;5617;54.046;10.676;2023-11-19T04:56:57;0.80;;;0.80;;
11125;SDS011;5617;54.046;10.676;2023-11-19T04:59:05;0.70;;;0.70;;
11125;SDS011;5617;54.046;10.676;2023-11-19T05:01:15;0.90;;;0.90;;
11125;SDS011;5617;54.046;10.676;2023-11-19T05:03:25;0.77;;;0.77;;
11125;SDS011;5617;54.046;10.676;2023-11-19T05:05:41;0.70;;;0.70;;
11125;SDS011;5617;54.046;10.676;2023-11-19T05:07:49;1.13;;;0.77;;
11125;SDS011;5617;54.046;10.676;2023-11-19T05:09:57;0.70;;;0.70;;
11125;SDS011;5617;54.046;10.676;2023-11-19T05:12:06;0.70;;;0.70;;
11125;SDS011;5617;54.046;10.676;2023-11-19T05:14:18;0.80;;;0.80;;
11125;SDS011;5617;54.046;10.676;2023-11-19T05:16:29;0.67;;;0.67;;
11125;SDS011;5617;54.046;10.676;2023-11-19T05:18:39;0.80;;;0.80;;
11125;SDS011;5617;54.046;10.676;2023-11-19T05:20:51;0.73;;;0.73;;
11125;SDS011;5617;54.046;10.676;2023-11-19T05:22:58;0.63;;;0.63;;
11125;SDS011;5617;54.046;10.676;2023-11-19T05:25:07;0.60;;;0.60;;
11125;SDS011;5617;54.046;10.676;2023-11-19T05:27:17;0.93;;;0.70;;
11125;SDS011;5617;54.046;10.676;2023-11-19T05:29:26;0.60;;;0.60;;
11125;SDS011;5617;54.046;10.676;2023-11-19T05:31:42;0.90;;;0.60;;
11125;SDS011;5617;54.046;10.676;2023-11-19T05:33:52;0.70;;;0.70;;
11125;SDS011;5617;54.046;10.676;2023-11-19T05:36:00;1.07;;;0.70;;
11125;SDS011;5617;54.046;10.676;2023-11-19T05:38:10;2.23;;;0.70;;
11125;SDS011;5617;54.046;10.676;2023-11-19T05:40:18;0.80;;;0.80;;
11125;SDS011;5617;54.046;10.676;2023-11-19T05:42:28;0.77;;;0.77;;
11125;SDS011;5617;54.046;10.676;2023-11-19T05:44:36;0.60;;;0.60;;
11125;SDS011;5617;54.046;10.676;2023-11-19T05:46:49;0.70;;;0.70;;
11125;SDS011;5617;54.046;10.676;2023-11-19T05:48:58;1.53;;;0.80;;
11125;SDS011;5617;54.046;10.676;2023-11-19T05:51:07;0.80;;;0.80;;
11125;SDS011;5617;54.046;10.676;2023-11-19T05:53:15;1.00;;;0.90;;
11125;SDS011;5617;54.046;10.676;2023-11-19T05:55:24;0.80;;;0.80;;
11125;SDS011;5617;54.046;10.676;2023-11-19T05:57:34;1.00;;;0.83;;
11125;SDS011;5617;54.046;10.676;2023-11-19T05:59:55;1.00;;;1.00;;
11125;SDS011;5617;54.046;10.676;2023-11-19T06:02:03;0.77;;;0.77;;
11125;SDS011;5617;54.046;10.676;2023-11-19T06:04:17;1.57;;;1.20;;
11125;SDS011;5617;54.046;10.676;2023-11-19T06:06:25;1.10;;;1.00;;
11125;SDS011;5617;54.046;10.676;2023-11-19T06:08:34;1.00;;;1.00;;
11125;SDS011;5617;54.046;10.676;2023-11-19T06:10:44;1.20;;;1.10;;
11125;SDS011;5617;54.046;10.676;2023-11-19T06:13:03;1.10;;;1.10;;
11125;SDS011;5617;54.046;10.676;2023-11-19T06:15:12;1.37;;;1.27;;
11125;SDS011;5617;54.046;10.676;2023-11-19T06:17:23;1.30;;;1.20;;
11125;SDS011;5617;54.046;10.676;2023-11-19T06:19:32;1.50;;;1.40;;
11125;SDS011;5617;54.046;10.676;2023-11-19T06:21:40;1.40;;;1.30;;
11125;SDS011;5617;54.046;10.676;2023-11-19T06:23:49;1.40;;;1.30;;
11125;SDS011;5617;54.046;10.676;2023-11-19T06:25:58;1.60;;;1.50;;
11125;SDS011;5617;54.046;10.676;2023-11-19T06:28:07;2.83;;;1.80;;
11125;SDS011;5617;54.046;10.676;2023-11-19T06:30:16;2.30;;;1.57;;
11125;SDS011;5617;54.046;10.676;2023-11-19T06:32:25;1.80;;;1.70;;
11125;SDS011;5617;54.046;10.676;2023-11-19T06:34:36;4.33;;;1.80;;
11125;SDS011;5617;54.046;10.676;2023-11-19T06:36:44;2.03;;;1.80;;
11125;SDS011;5617;54.046;10.676;2023-11-19T06:38:52;2.63;;;1.70;;
11125;SDS011;5617;54.046;10.676;2023-11-19T06:41:09;2.57;;;1.80;;
11125;SDS011;5617;54.046;10.676;2023-11-19T06:43:17;2.37;;;2.10;;
11125;SDS011;5617;54.046;10.676;2023-11-19T06:45:26;2.60;;;1.97;;
11125;SDS011;5617;54.046;10.676;2023-11-19T06:47:34;2.33;;;2.00;;
11125;SDS011;5617;54.046;10.676;2023-11-19T06:49:44;3.87;;;2.43;;
11125;SDS011;5617;54.046;10.676;2023-11-19T06:51:52;2.80;;;2.60;;
11125;SDS011;5617;54.046;10.676;2023-11-19T06:54:00;3.83;;;2.60;;
11125;SDS011;5617;54.046;10.676;2023-11-19T06:56:22;4.50;;;3.10;;
11125;SDS011;5617;54.046;10.676;2023-11-19T06:58:30;3.30;;;3.00;;
11125;SDS011;5617;54.046;10.676;2023-11-19T07:00:45;4.37;;;2.97;;
11125;SDS011;5617;54.046;10.676;2023-11-19T07:02:55;3.50;;;3.20;;
11125;SDS011;5617;54.046;10.676;2023-11-19T07:05:05;3.40;;;3.13;;
11125;SDS011;5617;54.046;10.676;2023-11-19T07:07:15;4.00;;;3.00;;
11125;SDS011;5617;54.046;10.676;2023-11-19T07:09:23;6.37;;;3.50;;
11125;SDS011;5617;54.046;10.676;2023-11-19T07:11:31;6.07;;;4.00;;
11125;SDS011;5617;54.046;10.676;2023-11-19T07:13:39;5.40;;;3.60;;
11125;SDS011;5617;54.046;10.676;2023-11-19T07:15:47;5.03;;;3.97;;
11125;SDS011;5617;54.046;10.676;2023-11-19T07:17:56;6.50;;;4.00;;
11125;SDS011;5617;54.046;10.676;2023-11-19T07:20:12;6.90;;;4.23;;
11125;SDS011;5617;54.046;10.676;2023-11-19T07:22:22;5.17;;;3.90;;
11125;SDS011;5617;54.046;10.676;2023-11-19T07:24:30;5.77;;;4.27;;
11125;SDS011;5617;54.046;10.676;2023-11-19T07:26:40;5.57;;;4.00;;
11125;SDS011;5617;54.046;10.676;2023-11-19T07:28:50;8.17;;;5.33;;
11125;SDS011;5617;54.046;10.676;2023-11-19T07:31:06;6.20;;;4.67;;
11125;SDS011;5617;54.046;10.676;2023-11-19T07:33:15;7.27;;;4.70;;
11125;SDS011;5617;54.046;10.676;2023-11-19T07:35:25;7.83;;;5.07;;
11125;SDS011;5617;54.046;10.676;2023-11-19T07:37:33;6.43;;;5.10;;
11125;SDS011;5617;54.046;10.676;2023-11-19T07:39:42;10.57;;;5.70;;
11125;SDS011;5617;54.046;10.676;2023-11-19T07:41:50;10.40;;;6.10;;
11125;SDS011;5617;54.046;10.676;2023-11-19T07:43:59;12.07;;;7.67;;
11125;SDS011;5617;54.046;10.676;2023-11-19T07:46:10;11.77;;;6.63;;
11125;SDS011;5617;54.046;10.676;2023-11-19T07:48:19;9.37;;;6.63;;
11125;SDS011;5617;54.046;10.676;2023-11-19T07:50:31;8.63;;;6.70;;
11125;SDS011;5617;54.046;10.676;2023-11-19T07:52:39;10.87;;;8.00;;
11125;SDS011;5617;54.046;10.676;2023-11-19T07:54:56;10.60;;;6.87;;
11125;SDS011;5617;54.046;10.676;2023-11-19T07:57:12;9.23;;;6.70;;
11125;SDS011;5617;54.046;10.676;2023-11-19T07:59:20;9.73;;;6.83;;
11125;SDS011;5617;54.046;10.676;2023-11-19T08:01:30;9.00;;;6.63;;
11125;SDS011;5617;54.046;10.676;2023-11-19T08:03:38;11.00;;;6.97;;
11125;SDS011;5617;54.046;10.676;2023-11-19T08:06:06;8.40;;;6.63;;
11125;SDS011;5617;54.046;10.676;2023-11-19T08:08:14;9.77;;;6.73;;
11125;SDS011;5617;54.046;10.676;2023-11-19T08:10:23;10.17;;;7.40;;
11125;SDS011;5617;54.046;10.676;2023-11-19T08:12:31;11.50;;;7.23;;
11125;SDS011;5617;54.046;10.676;2023-11-19T08:14:42;11.90;;;7.20;;
11125;SDS011;5617;54.046;10.676;2023-11-19T08:16:50;11.07;;;7.20;;
11125;SDS011;5617;54.046;10.676;2023-11-19T08:18:59;11.93;;;7.50;;
11125;SDS011;5617;54.046;10.676;2023-11-19T08:21:09;11.63;;;7.80;;
11125;SDS011;5617;54.046;10.676;2023-11-19T08:23:17;14.60;;;8.67;;
11125;SDS011;5617;54.046;10.676;2023-11-19T08:25:26;12.90;;;7.67;;
11125;SDS011;5617;54.046;10.676;2023-11-19T08:27:35;11.30;;;7.77;;
11125;SDS011;5617;54.046;10.676;2023-11-19T08:29:43;11.03;;;7.73;;
11125;SDS011;5617;54.046;10.676;2023-11-19T08:31:52;11.23;;;7.10;;
11125;SDS011;5617;54.046;10.676;2023-11-19T08:33:59;12.43;;;7.67;;
11125;SDS011;5617;54.046;10.676;2023-11-19T08:36:17;13.67;;;7.60;;
11125;SDS011;5617;54.046;10.676;2023-11-19T08:38:25;14.00;;;7.60;;
11125;SDS011;5617;54.046;10.676;2023-11-19T08:40:39;12.57;;;7.57;;
11125;SDS011;5617;54.046;10.676;2023-11-19T08:42:47;12.57;;;7.50;;
11125;SDS011;5617;54.046;10.676;2023-11-19T08:44:55;13.67;;;7.40;;
11125;SDS011;5617;54.046;10.676;2023-11-19T08:47:04;12.73;;;6.47;;
11125;SDS011;5617;54.046;10.676;2023-11-19T08:49:12;12.07;;;6.40;;
11125;SDS011;5617;54.046;10.676;2023-11-19T08:51:25;15.43;;;5.27;;
11125;SDS011;5617;54.046;10.676;2023-11-19T08:53:35;11.47;;;4.43;;
11125;SDS011;5617;54.046;10.676;2023-11-19T08:55:43;15.13;;;4.70;;
11125;SDS011;5617;54.046;10.676;2023-11-19T08:57:51;8.60;;;3.43;;
11125;SDS011;5617;54.046;10.676;2023-11-19T09:00:00;14.77;;;3.73;;
11125;SDS011;5617;54.046;10.676;2023-11-19T09:02:09;12.83;;;4.03;;
11125;SDS011;5617;54.046;10.676;2023-11-19T09:04:17;16.67;;;3.70;;
11125;SDS011;5617;54.046;10.676;2023-11-19T09:06:38;16.13;;;4.30;;
11125;SDS011;5617;54.046;10.676;2023-11-19T09:08:55;15.13;;;3.80;;
11125;SDS011;5617;54.046;10.676;2023-11-19T09:11:07;15.30;;;3.73;;
11125;SDS011;5617;54.046;10.676;2023-11-19T09:13:16;20.17;;;4.20;;
11125;SDS011;5617;54.046;10.676;2023-11-19T09:15:24;14.27;;;3.37;;
11125;SDS011;5617;54.046;10.676;2023-11-19T09:17:33;15.67;;;3.90;;
11125;SDS011;5617;54.046;10.676;2023-11-19T09:19:42;14.80;;;3.27;;
11125;SDS011;5617;54.046;10.676;2023-11-19T09:21:51;9.10;;;2.70;;
11125;SDS011;5617;54.046;10.676;2023-11-19T09:24:00;16.27;;;3.50;;
11125;SDS011;5617;54.046;10.676;2023-11-19T09:26:08;14.20;;;3.13;;
11125;SDS011;5617;54.046;10.676;2023-11-19T09:28:17;15.33;;;3.20;;
11125;SDS011;5617;54.046;10.676;2023-11-19T09:30:25;14.93;;;3.33;;
11125;SDS011;5617;54.046;10.676;2023-11-19T09:32:34;13.63;;;3.17;;
11125;SDS011;5617;54.046;10.676;2023-11-19T09:34:44;13.87;;;3.57;;
11125;SDS011;5617;54.046;10.676;2023-11-19T09:36:53;13.97;;;3.40;;
11125;SDS011;5617;54.046;10.676;2023-11-19T09:39:01;16.43;;;4.20;;
11125;SDS011;5617;54.046;10.676;2023-11-19T09:41:11;16.57;;;3.60;;
11125;SDS011;5617;54.046;10.676;2023-11-19T09:43:20;15.87;;;3.47;;
11125;SDS011;5617;54.046;10.676;2023-11-19T09:45:28;14.80;;;3.20;;
11125;SDS011;5617;54.046;10.676;2023-11-19T09:47:48;16.53;;;3.10;;
11125;SDS011;5617;54.046;10.676;2023-11-19T09:50:00;13.13;;;3.10;;
11125;SDS011;5617;54.046;10.676;2023-11-19T09:52:18;12.03;;;2.60;;
11125;SDS011;5617;54.046;10.676;2023-11-19T09:54:26;17.83;;;3.53;;
11125;SDS011;5617;54.046;10.676;2023-11-19T09:56:34;15.27;;;3.30;;
11125;SDS011;5617;54.046;10.676;2023-11-19T09:58:45;12.80;;;3.10;;
11125;SDS011;5617;54.046;10.676;2023-11-19T10:00:54;13.00;;;3.03;;
11125;SDS011;5617;54.046;10.676;2023-11-19T10:03:23;10.83;;;3.10;;
11125;SDS011;5617;54.046;10.676;2023-11-19T10:05:41;14.17;;;3.33;;
11125;SDS011;5617;54.046;10.676;2023-11-19T10:07:50;12.00;;;2.70;;
11125;SDS011;5617;54.046;10.676;2023-11-19T10:09:59;11.97;;;2.83;;
11125;SDS011;5617;54.046;10.676;2023-11-19T10:12:08;11.20;;;2.10;;
11125;SDS011;5617;54.046;10.676;2023-11-19T10:14:17;13.57;;;3.33;;
11125;SDS011;5617;54.046;10.676;2023-11-19T10:16:30;6.97;;;2.20;;
11125;SDS011;5617;54.046;10.676;2023-11-19T10:18:42;10.17;;;2.77;;
11125;SDS011;5617;54.046;10.676;2023-11-19T10:20:52;9.90;;;2.63;;
11125;SDS011;5617;54.046;10.676;2023-11-19T10:23:02;9.30;;;2.90;;
11125;SDS011;5617;54.046;10.676;2023-11-19T10:25:24;11.93;;;3.53;;
11125;SDS011;5617;54.046;10.676;2023-11-19T10:27:34;9.73;;;2.63;;
11125;SDS011;5617;54.046;10.676;2023-11-19T10:29:43;10.40;;;3.10;;
11125;SDS011;5617;54.046;10.676;2023-11-19T10:31:56;10.30;;;2.90;;
11125;SDS011;5617;54.046;10.676;2023-11-19T10:34:26;6.43;;;2.00;;
11125;SDS011;5617;54.046;10.676;2023-11-19T10:36:39;12.27;;;2.53;;
11125;SDS011;5617;54.046;10.676;2023-11-19T10:38:57;11.73;;;3.30;;
11125;SDS011;5617;54.046;10.676;2023-11-19T10:41:07;12.83;;;3.17;;
11125;SDS011;5617;54.046;10.676;2023-11-19T10:43:15;10.97;;;3.00;;
11125;SDS011;5617;54.046;10.676;2023-11-19T10:45:23;11.50;;;2.20;;
11125;SDS011;5617;54.046;10.676;2023-11-19T10:47:32;15.57;;;2.90;;
11125;SDS011;5617;54.046;10.676;2023-11-19T10:49:46;12.77;;;2.97;;
11125;SDS011;5617;54.046;10.676;2023-11-19T10:51:54;11.30;;;2.90;;
11125;SDS011;5617;54.046;10.676;2023-11-19T10:54:06;12.10;;;2.50;;
11125;SDS011;5617;54.046;10.676;2023-11-19T10:56:24;15.17;;;2.57;;
11125;SDS011;5617;54.046;10.676;2023-11-19T10:58:37;5.63;;;1.80;;
11125;SDS011;5617;54.046;10.676;2023-11-19T11:00:50;9.50;;;1.83;;
11125;SDS011;5617;54.046;10.676;2023-11-19T11:03:02;14.33;;;3.73;;
11125;SDS011;5617;54.046;10.676;2023-11-19T11:05:18;11.83;;;3.57;;
11125;SDS011;5617;54.046;10.676;2023-11-19T11:07:31;12.67;;;2.80;;
11125;SDS011;5617;54.046;10.676;2023-11-19T11:09:50;15.37;;;2.87;;
11125;SDS011;5617;54.046;10.676;2023-11-19T11:11:59;18.73;;;4.20;;
11125;SDS011;5617;54.046;10.676;2023-11-19T11:14:07;12.00;;;3.47;;
11125;SDS011;5617;54.046;10.676;2023-11-19T11:16:19;10.03;;;2.93;;
11125;SDS011;5617;54.046;10.676;2023-11-19T11:18:30;11.33;;;3.07;;
11125;SDS011;5617;54.046;10.676;2023-11-19T11:20:37;16.37;;;3.80;;
11125;SDS011;5617;54.046;10.676;2023-11-19T11:22:49;13.03;;;3.60;;
11125;SDS011;5617;54.046;10.676;2023-11-19T11:25:26;13.87;;;3.13;;
11125;SDS011;5617;54.046;10.676;2023-11-19T11:30:20;9.87;;;2.93;;
11125;SDS011;5617;54.046;10.676;2023-11-19T11:32:43;9.97;;;3.27;;
11125;SDS011;5617;54.046;10.676;2023-11-19T11:34:59;12.00;;;3.03;;
11125;SDS011;5617;54.046;10.676;2023-11-19T11:37:25;13.17;;;3.00;;
11125;SDS011;5617;54.046;10.676;2023-11-19T11:39:39;9.93;;;2.50;;
11125;SDS011;5617;54.046;10.676;2023-11-19T11:44:33;7.97;;;2.50;;
11125;SDS011;5617;54.046;10.676;2023-11-19T11:47:12;7.70;;;1.87;;
11125;SDS011;5617;54.046;10.676;2023-11-19T11:49:27;10.83;;;3.13;;
11125;SDS011;5617;54.046;10.676;2023-11-19T11:54:05;6.37;;;1.77;;
11125;SDS011;5617;54.046;10.676;2023-11-19T11:56:15;7.40;;;2.20;;
11125;SDS011;5617;54.046;10.676;2023-11-19T11:58:31;8.17;;;1.93;;
11125;SDS011;5617;54.046;10.676;2023-11-19T12:00:41;10.97;;;3.40;;
11125;SDS011;5617;54.046;10.676;2023-11-19T12:02:49;10.80;;;2.57;;
11125;SDS011;5617;54.046;10.676;2023-11-19T12:04:58;10.13;;;2.70;;
11125;SDS011;5617;54.046;10.676;2023-11-19T12:07:12;10.00;;;2.67;;
11125;SDS011;5617;54.046;10.676;2023-11-19T12:09:21;10.37;;;2.87;;
11125;SDS011;5617;54.046;10.676;2023-11-19T12:11:32;7.40;;;2.50;;
11125;SDS011;5617;54.046;10.676;2023-11-19T12:16:14;6.97;;;2.10;;
11125;SDS011;5617;54.046;10.676;2023-11-19T12:18:22;11.13;;;2.87;;
11125;SDS011;5617;54.046;10.676;2023-11-19T12:20:31;6.63;;;2.30;;
11125;SDS011;5617;54.046;10.676;2023-11-19T12:22:52;11.57;;;2.80;;
11125;SDS011;5617;54.046;10.676;2023-11-19T12:25:04;10.77;;;2.67;;
11125;SDS011;5617;54.046;10.676;2023-11-19T12:27:14;9.00;;;2.37;;
11125;SDS011;5617;54.046;10.676;2023-11-19T12:29:26;9.03;;;2.13;;
11125;SDS011;5617;54.046;10.676;2023-11-19T12:31:35;10.17;;;2.30;;
11125;SDS011;5617;54.046;10.676;2023-11-19T12:33:44;10.90;;;2.70;;
11125;SDS011;5617;54.046;10.676;2023-11-19T12:35:55;13.30;;;3.30;;
11125;SDS011;5617;54.046;10.676;2023-11-19T12:38:04;5.00;;;1.33;;
11125;SDS011;5617;54.046;10.676;2023-11-19T12:40:16;8.40;;;2.40;;
11125;SDS011;5617;54.046;10.676;2023-11-19T12:42:34;9.93;;;2.60;;
11125;SDS011;5617;54.046;10.676;2023-11-19T12:44:53;10.33;;;2.60;;
11125;SDS011;5617;54.046;10.676;2023-11-19T12:47:04;11.93;;;3.33;;
11125;SDS011;5617;54.046;10.676;2023-11-19T12:49:14;8.47;;;2.50;;
11125;SDS011;5617;54.046;10.676;2023-11-19T12:51:22;11.13;;;2.60;;
11125;SDS011;5617;54.046;10.676;2023-11-19T12:53:46;11.67;;;2.80;;
11125;SDS011;5617;54.046;10.676;2023-11-19T12:55:56;12.47;;;2.43;;
11125;SDS011;5617;54.046;10.676;2023-11-19T12:58:28;11.80;;;2.33;;
11125;SDS011;5617;54.046;10.676;2023-11-19T13:00:36;7.90;;;1.93;;
11125;SDS011;5617;54.046;10.676;2023-11-19T13:02:46;9.57;;;2.70;;
11125;SDS011;5617;54.046;10.676;2023-11-19T13:04:55;8.47;;;1.83;;
11125;SDS011;5617;54.046;10.676;2023-11-19T13:07:04;9.80;;;2.20;;
11125;SDS011;5617;54.046;10.676;2023-11-19T13:09:21;9.10;;;2.60;;
11125;SDS011;5617;54.046;10.676;2023-11-19T13:11:39;10.47;;;2.63;;
11125;SDS011;5617;54.046;10.676;2023-11-19T13:13:54;14.60;;;3.00;;
11125;SDS011;5617;54.046;10.676;2023-11-19T13:16:11;8.87;;;2.53;;
11125;SDS011;5617;54.046;10.676;2023-11-19T13:18:20;12.07;;;3.33;;